sensor_id;sensor_type;location;lat;lon;timestamp;temperature;humidity
45233;DHT22;30969;51.052;17.056;2023-08-08T00:00:55;17.70;62.00
45233;DHT22;30969;51.052;17.056;2023-08-08T00:06:09;17.70;61.00
45233;DHT22;30969;51.052;17.056;2023-08-08T00:11:12;17.70;60.80
45233;DHT22;30969;51.052;17.056;2023-08-08T00:16:17;17.60;60.60
45233;DHT22;30969;51.052;17.056;2023-08-08T00:21:21;17.70;60.70
45233;DHT22;30969;51.052;17.056;2023-08-08T00:26:24;17.60;60.60
45233;DHT22;30969;51.052;17.056;2023-08-08T00:31:29;17.70;60.70
45233;DHT22;30969;51.052;17.056;2023-08-08T00:36:32;17.70;60.60
45233;DHT22;30969;51.052;17.056;2023-08-08T00:41:35;17.60;60.30
45233;DHT22;30969;51.052;17.056;2023-08-08T00:46:40;17.60;60.40
45233;DHT22;30969;51.052;17.056;2023-08-08T00:51:43;17.60;60.20
45233;DHT22;30969;51.052;17.056;2023-08-08T00:56:47;17.50;60.30
45233;DHT22;30969;51.052;17.056;2023-08-08T01:01:52;17.60;60.30
45233;DHT22;30969;51.052;17.056;2023-08-08T01:06:58;17.60;60.40
45233;DHT22;30969;51.052;17.056;2023-08-08T01:12:05;17.50;60.40
45233;DHT22;30969;51.052;17.056;2023-08-08T01:17:10;17.50;60.40
45233;DHT22;30969;51.052;17.056;2023-08-08T01:22:16;17.50;60.50
45233;DHT22;30969;51.052;17.056;2023-08-08T01:27:27;17.50;60.50
45233;DHT22;30969;51.052;17.056;2023-08-08T01:32:30;17.50;60.50
45233;DHT22;30969;51.052;17.056;2023-08-08T01:37:36;17.40;60.50
45233;DHT22;30969;51.052;17.056;2023-08-08T01:42:43;17.40;60.50
45233;DHT22;30969;51.052;17.056;2023-08-08T01:47:49;17.40;60.60
45233;DHT22;30969;51.052;17.056;2023-08-08T01:52:53;17.30;60.50
45233;DHT22;30969;51.052;17.056;2023-08-08T01:57:58;17.30;60.50
45233;DHT22;30969;51.052;17.056;2023-08-08T02:03:01;17.30;60.60
45233;DHT22;30969;51.052;17.056;2023-08-08T02:08:05;17.30;60.80
45233;DHT22;30969;51.052;17.056;2023-08-08T02:13:10;17.20;60.90
45233;DHT22;30969;51.052;17.056;2023-08-08T02:18:13;17.20;60.80
45233;DHT22;30969;51.052;17.056;2023-08-08T02:23:17;17.20;60.70
45233;DHT22;30969;51.052;17.056;2023-08-08T02:28:22;17.10;60.70
45233;DHT22;30969;51.052;17.056;2023-08-08T02:33:25;17.10;60.70
45233;DHT22;30969;51.052;17.056;2023-08-08T02:38:29;17.10;60.70
45233;DHT22;30969;51.052;17.056;2023-08-08T02:43:33;17.00;60.60
45233;DHT22;30969;51.052;17.056;2023-08-08T02:48:37;17.00;60.60
45233;DHT22;30969;51.052;17.056;2023-08-08T02:53:40;17.00;60.50
45233;DHT22;30969;51.052;17.056;2023-08-08T02:58:45;16.90;60.40
45233;DHT22;30969;51.052;17.056;2023-08-08T03:03:48;16.90;60.30
45233;DHT22;30969;51.052;17.056;2023-08-08T03:08:51;16.90;60.30
45233;DHT22;30969;51.052;17.056;2023-08-08T03:13:56;16.80;60.10
45233;DHT22;30969;51.052;17.056;2023-08-08T03:19:00;16.80;61.20
45233;DHT22;30969;51.052;17.056;2023-08-08T03:24:03;16.70;59.90
45233;DHT22;30969;51.052;17.056;2023-08-08T03:29:09;16.70;60.00
45233;DHT22;30969;51.052;17.056;2023-08-08T03:34:12;16.70;60.00
45233;DHT22;30969;51.052;17.056;2023-08-08T03:39:16;16.70;60.00
45233;DHT22;30969;51.052;17.056;2023-08-08T03:44:20;16.70;60.00
45233;DHT22;30969;51.052;17.056;2023-08-08T03:49:25;16.70;60.10
45233;DHT22;30969;51.052;17.056;2023-08-08T03:54:28;16.60;60.00
45233;DHT22;30969;51.052;17.056;2023-08-08T03:59:33;16.60;60.10
45233;DHT22;30969;51.052;17.056;2023-08-08T04:04:36;16.60;60.30
45233;DHT22;30969;51.052;17.056;2023-08-08T04:09:40;16.60;60.30
45233;DHT22;30969;51.052;17.056;2023-08-08T04:14:45;16.60;60.50
45233;DHT22;30969;51.052;17.056;2023-08-08T04:19:48;16.50;60.60
45233;DHT22;30969;51.052;17.056;2023-08-08T04:24:53;16.50;60.70
45233;DHT22;30969;51.052;17.056;2023-08-08T04:29:57;16.50;60.80
45233;DHT22;30969;51.052;17.056;2023-08-08T04:35:01;16.50;60.90
45233;DHT22;30969;51.052;17.056;2023-08-08T04:40:04;16.50;61.00
45233;DHT22;30969;51.052;17.056;2023-08-08T04:45:11;16.50;61.10
45233;DHT22;30969;51.052;17.056;2023-08-08T04:50:16;16.50;61.10
45233;DHT22;30969;51.052;17.056;2023-08-08T04:55:19;16.50;61.00
45233;DHT22;30969;51.052;17.056;2023-08-08T05:00:25;16.50;61.10
45233;DHT22;30969;51.052;17.056;2023-08-08T05:05:29;16.50;61.10
45233;DHT22;30969;51.052;17.056;2023-08-08T05:10:32;16.60;61.10
45233;DHT22;30969;51.052;17.056;2023-08-08T05:15:37;16.60;61.00
45233;DHT22;30969;51.052;17.056;2023-08-08T05:20:40;16.60;60.90
45233;DHT22;30969;51.052;17.056;2023-08-08T05:25:45;16.60;60.80
45233;DHT22;30969;51.052;17.056;2023-08-08T05:30:49;16.70;60.70
45233;DHT22;30969;51.052;17.056;2023-08-08T05:35:53;16.70;60.60
45233;DHT22;30969;51.052;17.056;2023-08-08T05:40:56;16.70;60.60
45233;DHT22;30969;51.052;17.056;2023-08-08T05:46:01;16.80;60.60
45233;DHT22;30969;51.052;17.056;2023-08-08T05:51:04;16.80;60.50
45233;DHT22;30969;51.052;17.056;2023-08-08T05:56:08;16.80;60.30
45233;DHT22;30969;51.052;17.056;2023-08-08T06:01:13;16.80;60.30
45233;DHT22;30969;51.052;17.056;2023-08-08T06:06:16;16.90;60.10
45233;DHT22;30969;51.052;17.056;2023-08-08T06:11:19;16.90;60.00
45233;DHT22;30969;51.052;17.056;2023-08-08T06:16:24;16.90;59.90
45233;DHT22;30969;51.052;17.056;2023-08-08T06:21:28;16.90;59.70
45233;DHT22;30969;51.052;17.056;2023-08-08T06:26:31;16.90;59.90
45233;DHT22;30969;51.052;17.056;2023-08-08T06:31:36;17.00;59.90
45233;DHT22;30969;51.052;17.056;2023-08-08T06:36:40;17.00;60.00
45233;DHT22;30969;51.052;17.056;2023-08-08T06:41:44;17.00;60.00
45233;DHT22;30969;51.052;17.056;2023-08-08T06:46:49;17.00;59.90
45233;DHT22;30969;51.052;17.056;2023-08-08T06:51:53;17.10;59.80
45233;DHT22;30969;51.052;17.056;2023-08-08T06:56:56;17.10;59.60
45233;DHT22;30969;51.052;17.056;2023-08-08T07:02:04;17.20;59.10
45233;DHT22;30969;51.052;17.056;2023-08-08T07:07:09;17.20;58.50
45233;DHT22;30969;51.052;17.056;2023-08-08T07:12:12;17.30;58.10
45233;DHT22;30969;51.052;17.056;2023-08-08T07:17:20;17.30;58.10
45233;DHT22;30969;51.052;17.056;2023-08-08T07:22:25;17.40;58.20
45233;DHT22;30969;51.052;17.056;2023-08-08T07:27:28;17.40;58.10
45233;DHT22;30969;51.052;17.056;2023-08-08T07:32:33;17.50;58.10
45233;DHT22;30969;51.052;17.056;2023-08-08T07:37:37;17.50;57.70
45233;DHT22;30969;51.052;17.056;2023-08-08T07:42:41;17.50;57.20
45233;DHT22;30969;51.052;17.056;2023-08-08T07:47:45;17.60;57.00
45233;DHT22;30969;51.052;17.056;2023-08-08T07:52:49;17.60;56.40
45233;DHT22;30969;51.052;17.056;2023-08-08T07:57:52;17.60;56.20
45233;DHT22;30969;51.052;17.056;2023-08-08T08:02:57;17.60;55.70
45233;DHT22;30969;51.052;17.056;2023-08-08T08:08:01;17.60;55.80
45233;DHT22;30969;51.052;17.056;2023-08-08T08:13:04;17.70;55.50
45233;DHT22;30969;51.052;17.056;2023-08-08T08:18:09;17.70;55.40
45233;DHT22;30969;51.052;17.056;2023-08-08T08:23:15;17.80;55.20
45233;DHT22;30969;51.052;17.056;2023-08-08T08:28:19;17.80;54.40
45233;DHT22;30969;51.052;17.056;2023-08-08T08:33:24;17.90;54.30
45233;DHT22;30969;51.052;17.056;2023-08-08T08:38:28;18.00;53.50
45233;DHT22;30969;51.052;17.056;2023-08-08T08:43:31;18.00;53.20
45233;DHT22;30969;51.052;17.056;2023-08-08T08:48:36;18.10;53.20
45233;DHT22;30969;51.052;17.056;2023-08-08T08:53:39;18.20;53.10
45233;DHT22;30969;51.052;17.056;2023-08-08T08:58:45;18.30;53.00
45233;DHT22;30969;51.052;17.056;2023-08-08T09:03:50;18.30;52.70
45233;DHT22;30969;51.052;17.056;2023-08-08T09:08:54;18.40;52.70
45233;DHT22;30969;51.052;17.056;2023-08-08T09:14:14;18.50;52.30
45233;DHT22;30969;51.052;17.056;2023-08-08T09:19:20;18.50;51.50
45233;DHT22;30969;51.052;17.056;2023-08-08T09:24:24;18.60;51.20
45233;DHT22;30969;51.052;17.056;2023-08-08T09:29:29;18.70;50.90
45233;DHT22;30969;51.052;17.056;2023-08-08T09:34:35;18.70;51.10
45233;DHT22;30969;51.052;17.056;2023-08-08T09:39:38;18.80;51.00
45233;DHT22;30969;51.052;17.056;2023-08-08T09:44:42;18.80;51.20
45233;DHT22;30969;51.052;17.056;2023-08-08T09:49:48;18.90;50.80
45233;DHT22;30969;51.052;17.056;2023-08-08T09:54:52;18.90;50.60
45233;DHT22;30969;51.052;17.056;2023-08-08T09:59:57;19.00;50.70
45233;DHT22;30969;51.052;17.056;2023-08-08T10:05:02;19.00;50.20
45233;DHT22;30969;51.052;17.056;2023-08-08T10:10:07;19.00;50.30
45233;DHT22;30969;51.052;17.056;2023-08-08T10:15:11;19.10;49.80
45233;DHT22;30969;51.052;17.056;2023-08-08T10:20:16;19.10;49.50
45233;DHT22;30969;51.052;17.056;2023-08-08T10:25:25;19.10;49.50
45233;DHT22;30969;51.052;17.056;2023-08-08T10:30:30;19.10;49.30
45233;DHT22;30969;51.052;17.056;2023-08-08T10:35:36;19.10;49.50
45233;DHT22;30969;51.052;17.056;2023-08-08T10:40:42;19.10;49.90
45233;DHT22;30969;51.052;17.056;2023-08-08T10:45:45;19.10;49.80
45233;DHT22;30969;51.052;17.056;2023-08-08T10:51:05;19.10;49.80
45233;DHT22;30969;51.052;17.056;2023-08-08T10:56:11;19.10;50.10
45233;DHT22;30969;51.052;17.056;2023-08-08T11:01:15;19.20;50.20
45233;DHT22;30969;51.052;17.056;2023-08-08T11:06:20;19.30;50.20
45233;DHT22;30969;51.052;17.056;2023-08-08T11:11:24;19.30;50.10
45233;DHT22;30969;51.052;17.056;2023-08-08T11:16:28;19.40;50.10
45233;DHT22;30969;51.052;17.056;2023-08-08T11:21:34;19.40;50.20
45233;DHT22;30969;51.052;17.056;2023-08-08T11:26:39;19.50;50.10
45233;DHT22;30969;51.052;17.056;2023-08-08T11:31:43;19.50;49.80
45233;DHT22;30969;51.052;17.056;2023-08-08T11:36:53;19.60;49.80
45233;DHT22;30969;51.052;17.056;2023-08-08T11:42:00;19.60;50.10
45233;DHT22;30969;51.052;17.056;2023-08-08T11:47:05;19.70;50.00
45233;DHT22;30969;51.052;17.056;2023-08-08T11:52:11;19.70;49.90
45233;DHT22;30969;51.052;17.056;2023-08-08T11:57:15;19.80;50.00
45233;DHT22;30969;51.052;17.056;2023-08-08T12:02:18;19.90;49.90
45233;DHT22;30969;51.052;17.056;2023-08-08T12:07:24;20.00;49.70
45233;DHT22;30969;51.052;17.056;2023-08-08T12:12:27;20.00;49.70
45233;DHT22;30969;51.052;17.056;2023-08-08T12:17:33;20.00;49.90
45233;DHT22;30969;51.052;17.056;2023-08-08T12:22:38;20.10;49.80
45233;DHT22;30969;51.052;17.056;2023-08-08T12:27:41;20.20;49.80
45233;DHT22;30969;51.052;17.056;2023-08-08T12:32:44;20.20;49.80
45233;DHT22;30969;51.052;17.056;2023-08-08T12:37:49;20.30;49.90
45233;DHT22;30969;51.052;17.056;2023-08-08T12:42:52;20.40;50.00
45233;DHT22;30969;51.052;17.056;2023-08-08T12:47:56;20.50;49.60
45233;DHT22;30969;51.052;17.056;2023-08-08T12:53:02;20.50;49.00
45233;DHT22;30969;51.052;17.056;2023-08-08T12:58:07;20.50;49.30
45233;DHT22;30969;51.052;17.056;2023-08-08T13:03:11;20.50;48.90
45233;DHT22;30969;51.052;17.056;2023-08-08T13:08:16;20.60;48.50
45233;DHT22;30969;51.052;17.056;2023-08-08T13:13:20;20.60;48.60
45233;DHT22;30969;51.052;17.056;2023-08-08T13:18:27;20.60;48.20
45233;DHT22;30969;51.052;17.056;2023-08-08T13:23:33;20.60;47.80
45233;DHT22;30969;51.052;17.056;2023-08-08T13:28:37;20.70;47.50
45233;DHT22;30969;51.052;17.056;2023-08-08T13:33:41;20.70;46.70
45233;DHT22;30969;51.052;17.056;2023-08-08T13:38:49;20.70;46.90
45233;DHT22;30969;51.052;17.056;2023-08-08T13:43:54;20.70;47.50
45233;DHT22;30969;51.052;17.056;2023-08-08T13:48:59;20.70;47.30
45233;DHT22;30969;51.052;17.056;2023-08-08T13:54:04;20.70;47.50
45233;DHT22;30969;51.052;17.056;2023-08-08T13:59:09;20.70;47.50
45233;DHT22;30969;51.052;17.056;2023-08-08T14:04:16;20.80;47.40
45233;DHT22;30969;51.052;17.056;2023-08-08T14:09:23;20.90;47.20
45233;DHT22;30969;51.052;17.056;2023-08-08T14:14:27;21.00;47.30
45233;DHT22;30969;51.052;17.056;2023-08-08T14:19:30;21.10;47.20
45233;DHT22;30969;51.052;17.056;2023-08-08T14:24:36;21.20;47.10
45233;DHT22;30969;51.052;17.056;2023-08-08T14:29:39;21.30;46.60
45233;DHT22;30969;51.052;17.056;2023-08-08T14:34:43;21.40;46.60
45233;DHT22;30969;51.052;17.056;2023-08-08T14:39:48;21.50;46.20
45233;DHT22;30969;51.052;17.056;2023-08-08T14:44:51;21.60;45.60
45233;DHT22;30969;51.052;17.056;2023-08-08T14:49:55;21.60;45.90
45233;DHT22;30969;51.052;17.056;2023-08-08T14:55:00;21.60;46.00
45233;DHT22;30969;51.052;17.056;2023-08-08T15:00:04;21.80;46.40
45233;DHT22;30969;51.052;17.056;2023-08-08T15:05:08;21.80;46.40
45233;DHT22;30969;51.052;17.056;2023-08-08T15:10:14;21.90;46.90
45233;DHT22;30969;51.052;17.056;2023-08-08T15:15:18;22.10;47.80
45233;DHT22;30969;51.052;17.056;2023-08-08T15:20:25;22.40;47.70
45233;DHT22;30969;51.052;17.056;2023-08-08T15:25:31;22.80;47.60
45233;DHT22;30969;51.052;17.056;2023-08-08T15:30:37;23.00;47.00
45233;DHT22;30969;51.052;17.056;2023-08-08T15:35:40;23.10;46.20
45233;DHT22;30969;51.052;17.056;2023-08-08T15:40:47;23.10;45.20
45233;DHT22;30969;51.052;17.056;2023-08-08T15:45:51;23.10;44.90
45233;DHT22;30969;51.052;17.056;2023-08-08T15:50:54;23.10;45.10
45233;DHT22;30969;51.052;17.056;2023-08-08T15:55:59;22.90;45.00
45233;DHT22;30969;51.052;17.056;2023-08-08T16:01:03;22.80;44.80
45233;DHT22;30969;51.052;17.056;2023-08-08T16:06:06;22.70;44.40
45233;DHT22;30969;51.052;17.056;2023-08-08T16:11:11;22.70;44.60
45233;DHT22;30969;51.052;17.056;2023-08-08T16:16:14;22.60;45.30
45233;DHT22;30969;51.052;17.056;2023-08-08T16:21:18;22.60;45.90
45233;DHT22;30969;51.052;17.056;2023-08-08T16:26:23;22.60;46.00
45233;DHT22;30969;51.052;17.056;2023-08-08T16:31:26;22.60;46.30
45233;DHT22;30969;51.052;17.056;2023-08-08T16:36:29;22.70;46.50
45233;DHT22;30969;51.052;17.056;2023-08-08T16:41:37;22.70;46.60
45233;DHT22;30969;51.052;17.056;2023-08-08T16:46:43;22.70;46.50
45233;DHT22;30969;51.052;17.056;2023-08-08T16:51:47;22.60;46.30
45233;DHT22;30969;51.052;17.056;2023-08-08T16:56:54;22.60;46.10
45233;DHT22;30969;51.052;17.056;2023-08-08T17:01:57;22.60;46.20
45233;DHT22;30969;51.052;17.056;2023-08-08T17:07:01;22.50;45.80
45233;DHT22;30969;51.052;17.056;2023-08-08T17:12:09;22.40;45.60
45233;DHT22;30969;51.052;17.056;2023-08-08T17:17:13;22.30;45.70
45233;DHT22;30969;51.052;17.056;2023-08-08T17:22:19;22.20;45.90
45233;DHT22;30969;51.052;17.056;2023-08-08T17:27:27;22.10;46.10
45233;DHT22;30969;51.052;17.056;2023-08-08T17:32:33;22.00;46.40
45233;DHT22;30969;51.052;17.056;2023-08-08T17:37:37;21.90;46.60
45233;DHT22;30969;51.052;17.056;2023-08-08T17:42:42;21.80;47.00
45233;DHT22;30969;51.052;17.056;2023-08-08T17:47:45;21.70;47.40
45233;DHT22;30969;51.052;17.056;2023-08-08T17:52:48;21.50;47.70
45233;DHT22;30969;51.052;17.056;2023-08-08T17:57:53;21.40;48.10
45233;DHT22;30969;51.052;17.056;2023-08-08T18:02:58;21.30;48.60
45233;DHT22;30969;51.052;17.056;2023-08-08T18:08:02;21.10;48.90
45233;DHT22;30969;51.052;17.056;2023-08-08T18:13:07;21.00;49.40
45233;DHT22;30969;51.052;17.056;2023-08-08T18:18:11;20.90;49.70
45233;DHT22;30969;51.052;17.056;2023-08-08T18:23:14;20.80;50.30
45233;DHT22;30969;51.052;17.056;2023-08-08T18:28:19;20.70;50.10
45233;DHT22;30969;51.052;17.056;2023-08-08T18:33:23;20.70;50.00
45233;DHT22;30969;51.052;17.056;2023-08-08T18:38:26;20.60;49.20
45233;DHT22;30969;51.052;17.056;2023-08-08T18:43:31;20.60;48.90
45233;DHT22;30969;51.052;17.056;2023-08-08T18:48:34;20.50;48.90
45233;DHT22;30969;51.052;17.056;2023-08-08T18:53:41;20.50;49.10
45233;DHT22;30969;51.052;17.056;2023-08-08T18:58:48;20.50;49.30
45233;DHT22;30969;51.052;17.056;2023-08-08T19:03:52;20.50;49.50
45233;DHT22;30969;51.052;17.056;2023-08-08T19:08:56;20.50;49.60
45233;DHT22;30969;51.052;17.056;2023-08-08T19:14:00;20.40;50.00
45233;DHT22;30969;51.052;17.056;2023-08-08T19:19:07;20.40;51.00
45233;DHT22;30969;51.052;17.056;2023-08-08T19:24:11;20.30;51.50
45233;DHT22;30969;51.052;17.056;2023-08-08T19:29:16;20.20;51.70
45233;DHT22;30969;51.052;17.056;2023-08-08T19:34:21;20.10;52.00
45233;DHT22;30969;51.052;17.056;2023-08-08T19:39:26;20.10;52.20
45233;DHT22;30969;51.052;17.056;2023-08-08T19:44:31;20.00;52.40
45233;DHT22;30969;51.052;17.056;2023-08-08T19:49:35;20.00;52.90
45233;DHT22;30969;51.052;17.056;2023-08-08T19:54:38;19.90;53.20
45233;DHT22;30969;51.052;17.056;2023-08-08T19:59:43;19.90;53.30
45233;DHT22;30969;51.052;17.056;2023-08-08T20:04:46;19.80;53.50
45233;DHT22;30969;51.052;17.056;2023-08-08T20:09:50;19.80;53.80
45233;DHT22;30969;51.052;17.056;2023-08-08T20:14:54;19.80;54.10
45233;DHT22;30969;51.052;17.056;2023-08-08T20:19:58;19.80;54.10
45233;DHT22;30969;51.052;17.056;2023-08-08T20:25:01;19.70;54.00
45233;DHT22;30969;51.052;17.056;2023-08-08T20:30:07;19.70;54.00
45233;DHT22;30969;51.052;17.056;2023-08-08T20:35:10;19.70;54.10
45233;DHT22;30969;51.052;17.056;2023-08-08T20:40:14;19.70;54.20
45233;DHT22;30969;51.052;17.056;2023-08-08T20:45:19;19.60;54.30
45233;DHT22;30969;51.052;17.056;2023-08-08T20:50:22;19.60;54.50
45233;DHT22;30969;51.052;17.056;2023-08-08T20:55:27;19.60;54.90
45233;DHT22;30969;51.052;17.056;2023-08-08T21:00:36;19.60;55.30
45233;DHT22;30969;51.052;17.056;2023-08-08T21:05:47;19.60;55.50
45233;DHT22;30969;51.052;17.056;2023-08-08T21:10:51;19.50;55.60
45233;DHT22;30969;51.052;17.056;2023-08-08T21:16:10;19.50;55.60
45233;DHT22;30969;51.052;17.056;2023-08-08T21:21:14;19.50;55.80
45233;DHT22;30969;51.052;17.056;2023-08-08T21:26:28;19.40;55.90
45233;DHT22;30969;51.052;17.056;2023-08-08T21:31:43;19.40;56.20
45233;DHT22;30969;51.052;17.056;2023-08-08T21:36:46;19.40;56.30
45233;DHT22;30969;51.052;17.056;2023-08-08T21:41:50;19.30;56.30
45233;DHT22;30969;51.052;17.056;2023-08-08T21:46:55;19.30;56.30
45233;DHT22;30969;51.052;17.056;2023-08-08T21:51:58;19.20;56.30
45233;DHT22;30969;51.052;17.056;2023-08-08T21:57:02;19.20;56.40
45233;DHT22;30969;51.052;17.056;2023-08-08T22:02:07;19.10;57.40
45233;DHT22;30969;51.052;17.056;2023-08-08T22:07:11;19.10;56.40
45233;DHT22;30969;51.052;17.056;2023-08-08T22:12:14;19.10;56.40
45233;DHT22;30969;51.052;17.056;2023-08-08T22:17:19;19.10;56.40
45233;DHT22;30969;51.052;17.056;2023-08-08T22:22:22;19.00;56.30
45233;DHT22;30969;51.052;17.056;2023-08-08T22:27:25;19.00;56.40
45233;DHT22;30969;51.052;17.056;2023-08-08T22:32:30;19.00;56.40
45233;DHT22;30969;51.052;17.056;2023-08-08T22:37:34;18.90;56.40
45233;DHT22;30969;51.052;17.056;2023-08-08T22:42:37;18.90;56.40
45233;DHT22;30969;51.052;17.056;2023-08-08T22:47:43;18.90;56.50
45233;DHT22;30969;51.052;17.056;2023-08-08T22:52:47;18.90;56.40
45233;DHT22;30969;51.052;17.056;2023-08-08T22:57:50;18.80;56.40
45233;DHT22;30969;51.052;17.056;2023-08-08T23:02:55;18.80;57.40
45233;DHT22;30969;51.052;17.056;2023-08-08T23:08:01;18.80;56.30
45233;DHT22;30969;51.052;17.056;2023-08-08T23:13:04;18.80;56.20
45233;DHT22;30969;51.052;17.056;2023-08-08T23:18:09;18.80;56.10
45233;DHT22;30969;51.052;17.056;2023-08-08T23:23:13;18.80;56.10
45233;DHT22;30969;51.052;17.056;2023-08-08T23:28:16;18.80;56.00
45233;DHT22;30969;51.052;17.056;2023-08-08T23:33:21;18.80;56.00
45233;DHT22;30969;51.052;17.056;2023-08-08T23:38:25;18.80;56.00
45233;DHT22;30969;51.052;17.056;2023-08-08T23:43:28;18.80;55.90
45233;DHT22;30969;51.052;17.056;2023-08-08T23:48:33;18.70;55.90
45233;DHT22;30969;51.052;17.056;2023-08-08T23:53:37;18.70;55.90
45233;DHT22;30969;51.052;17.056;2023-08-08T23:58:40;18.70;55.90
